Decoded Metar for KGJT (GRAND JUNCTION in CO, USA) (IATA:GJT) | Meteo·Mobile Aviation Weather
aviador You're here:

KGJT Decoded Metar

GRAND JUNCTION in CO, USA
Report Time2018-11-16 02:53:00
UTC Time2018-11-16 03:22:25
Flight Rules vfr VFR
Wind020° at 06 kt
W.Decomp.*RWY 04: 5.0 kt HW 3.3 kt LCW
RWY 29: 1.3 kt HW 5.8 kt RCW
W.Rank020° ranks 33
Current wind is below 020° avg. (7.0)
Visibility9999 m
Phenomena:N/A
Clouds:N/A
Expected CloudBase > 4,400 ft AGL from Temp-Dew spread
CeilingNone
Temp03°C (ISA -2)
Dew Point-8°C (45% RH)
AAT-2.0°C
QNH1023 hPa
Density Alt4,272 ft
Elevation4,839 ft
Report Wrong Elevation
Raw Report
KGJT 160253Z 02006KT 10SM CLR 03/M08 A3021 RMK AO2 SLP240
T00331078 51004=

Extra information for KGJT:More info

Metar Taf Metar & Taf Last 4 Metars F.Rules Stats Wind Profile Meteogram Temp Stats Airport Information Weather charts Add Link Nearby VenuesMetar ALERT Operation Metar Decoded Social comments

AIRNAV info for KGJT